createdAt,value
2022-09-07T00:03:48.323Z,19.80
2022-09-07T00:09:51.501Z,19.80
2022-09-07T00:15:53.834Z,19.80
2022-09-07T00:21:55.818Z,19.70
2022-09-07T00:27:57.781Z,19.70
2022-09-07T00:34:02.013Z,19.70
2022-09-07T00:40:05.578Z,19.70
2022-09-07T00:46:24.715Z,19.60
2022-09-07T00:52:29.235Z,19.60
2022-09-07T00:58:34.449Z,19.50
2022-09-07T01:04:37.437Z,19.50
2022-09-07T01:10:39.533Z,19.50
2022-09-07T01:17:25.063Z,19.40
2022-09-07T01:24:43.249Z,19.40
2022-09-07T01:30:59.469Z,19.30
2022-09-07T01:37:56.771Z,19.20
2022-09-07T01:44:27.152Z,19.20
2022-09-07T01:50:52.584Z,19.20
2022-09-07T01:57:01.943Z,19.30
2022-09-07T02:03:55.945Z,19.40
2022-09-07T02:10:09.555Z,19.30
2022-09-07T02:16:18.796Z,19.30
2022-09-07T02:22:30.036Z,19.20
2022-09-07T02:28:38.538Z,19.20
2022-09-07T02:34:40.536Z,19.20
2022-09-07T02:40:42.500Z,19.10
2022-09-07T02:47:24.007Z,19.10
2022-09-07T02:54:15.315Z,19.10
2022-09-07T03:00:26.810Z,19.00
2022-09-07T03:07:05.684Z,19.00
2022-09-07T03:13:08.030Z,18.90
2022-09-07T03:19:10.075Z,19.00
2022-09-07T03:25:12.304Z,18.90
2022-09-07T03:31:14.365Z,19.00
2022-09-07T03:37:16.433Z,19.00
2022-09-07T03:43:18.375Z,19.00
2022-09-07T03:49:20.497Z,19.10
2022-09-07T03:55:22.458Z,19.20
2022-09-07T04:01:25.976Z,19.30
2022-09-07T04:07:27.974Z,19.40
2022-09-07T04:13:31.856Z,19.30
2022-09-07T04:19:33.909Z,19.30
2022-09-07T04:25:35.899Z,19.30
2022-09-07T04:31:38.843Z,19.30
2022-09-07T04:37:41.043Z,19.40
2022-09-07T04:43:43.468Z,19.50
2022-09-07T04:49:45.448Z,19.60
2022-09-07T04:55:47.467Z,19.60
2022-09-07T05:01:49.428Z,19.60
2022-09-07T05:07:51.517Z,19.60
2022-09-07T05:13:55.537Z,19.50
2022-09-07T05:19:58.229Z,19.50
2022-09-07T05:26:00.389Z,19.50
2022-09-07T05:32:02.595Z,19.60
2022-09-07T05:38:04.566Z,19.80
2022-09-07T05:50:28.981Z,20.00
2022-09-07T05:56:33.469Z,20.10
2022-09-07T06:02:39.526Z,20.30
2022-09-07T06:08:51.200Z,20.40
2022-09-07T06:14:53.167Z,20.60
2022-09-07T06:20:55.129Z,20.90
2022-09-07T06:26:57.068Z,20.90
2022-09-07T06:32:59.067Z,20.50
2022-09-07T06:39:04.159Z,20.10
2022-09-07T06:45:06.985Z,19.70
2022-09-07T06:51:18.973Z,19.50
2022-09-07T06:57:20.944Z,19.30
2022-09-07T07:03:23.136Z,19.40
2022-09-07T07:09:25.162Z,19.60
2022-09-07T07:15:31.051Z,19.70
2022-09-07T07:21:48.559Z,19.90
2022-09-07T07:27:55.077Z,20.20
2022-09-07T07:33:57.236Z,20.70
2022-09-07T07:40:16.973Z,20.90
2022-09-07T07:46:21.087Z,21.10
2022-09-07T07:58:48.027Z,21.80
2022-09-07T08:04:50.587Z,22.30
2022-09-07T08:10:52.992Z,23.00
2022-09-07T08:16:54.901Z,23.40
2022-09-07T08:22:56.803Z,23.60
2022-09-07T08:28:58.761Z,24.10
2022-09-07T08:35:01.306Z,24.50
2022-09-07T08:41:37.168Z,24.90
2022-09-07T08:47:47.019Z,25.40
2022-09-07T08:53:49.813Z,25.80
2022-09-07T09:00:12.006Z,26.70
2022-09-07T09:06:41.502Z,27.40
2022-09-07T09:13:15.715Z,27.50
2022-09-07T09:19:45.400Z,27.80
2022-09-07T09:25:53.508Z,28.70
2022-09-07T09:31:55.689Z,28.70
2022-09-07T09:38:00.274Z,28.30
2022-09-07T09:44:06.145Z,27.50
2022-09-07T09:56:54.158Z,28.70
2022-09-07T10:09:49.028Z,31.60
2022-09-07T10:15:57.131Z,30.80
2022-09-07T10:22:25.163Z,31.00
2022-09-07T10:29:06.444Z,31.50
2022-09-07T10:35:31.437Z,31.80
2022-09-07T10:42:20.521Z,30.60
2022-09-07T10:48:55.392Z,31.20
2022-09-07T10:55:20.504Z,32.70
2022-09-07T11:01:34.383Z,33.80
2022-09-07T11:08:07.023Z,35.50
2022-09-07T11:14:21.954Z,33.60
2022-09-07T11:20:55.351Z,33.30
2022-09-07T11:27:16.010Z,32.80
2022-09-07T11:40:31.223Z,32.60
2022-09-07T11:46:48.041Z,33.70
2022-09-07T11:53:20.410Z,33.70
2022-09-07T11:59:45.146Z,33.20
2022-09-07T12:06:22.546Z,34.90
2022-09-07T12:12:58.613Z,34.40
2022-09-07T12:19:19.867Z,34.30
2022-09-07T12:25:21.922Z,33.40
2022-09-07T12:31:59.364Z,34.70
2022-09-07T12:38:18.648Z,34.20
2022-09-07T12:44:28.555Z,34.80
2022-09-07T12:50:43.548Z,34.20
2022-09-07T13:10:03.762Z,36.20
2022-09-07T13:16:05.585Z,35.40
2022-09-07T13:22:30.339Z,32.70
2022-09-07T13:28:40.254Z,31.00
2022-09-07T13:35:19.204Z,30.40
2022-09-07T13:41:42.308Z,29.30
2022-09-07T13:47:51.854Z,27.90
2022-09-07T13:53:56.721Z,27.20
2022-09-07T13:59:59.365Z,26.50
2022-09-07T14:06:25.244Z,26.50
2022-09-07T14:12:31.110Z,27.60
2022-09-07T14:18:33.557Z,28.40
2022-09-07T14:25:01.531Z,28.30
2022-09-07T14:31:05.781Z,29.00
2022-09-07T14:37:13.237Z,30.80
2022-09-07T14:43:50.507Z,32.50
2022-09-07T14:49:55.924Z,31.10
2022-09-07T14:56:11.078Z,29.60
2022-09-07T15:02:19.206Z,30.40
2022-09-07T15:08:45.921Z,29.90
2022-09-07T15:14:48.338Z,30.70
2022-09-07T15:20:51.103Z,30.20
2022-09-07T15:27:08.523Z,29.20
2022-09-07T15:33:11.494Z,28.30
2022-09-07T15:39:28.065Z,28.00
2022-09-07T15:45:30.037Z,27.80
2022-09-07T15:58:05.490Z,29.50
2022-09-07T16:04:14.969Z,29.90
2022-09-07T16:10:17.568Z,29.50
2022-09-07T16:16:19.722Z,28.80
2022-09-07T16:28:47.725Z,28.00
2022-09-07T16:34:49.693Z,27.40
2022-09-07T16:40:51.726Z,27.00
2022-09-07T16:46:53.663Z,26.60
2022-09-07T16:52:56.282Z,26.10
2022-09-07T16:59:03.321Z,25.70
2022-09-07T17:05:05.824Z,25.40
2022-09-07T17:11:18.320Z,25.10
2022-09-07T17:17:22.015Z,24.80
2022-09-07T17:23:24.727Z,24.30
2022-09-07T17:29:27.502Z,24.00
2022-09-07T17:35:30.740Z,23.70
2022-09-07T17:41:36.158Z,23.50
2022-09-07T17:47:38.201Z,23.30
2022-09-07T17:53:45.313Z,23.10
2022-09-07T18:06:10.915Z,22.80
2022-09-07T18:12:12.835Z,22.60
2022-09-07T18:18:16.602Z,22.60
2022-09-07T18:24:23.182Z,22.50
2022-09-07T18:30:25.973Z,22.40
2022-09-07T18:36:29.099Z,22.40
2022-09-07T18:42:31.149Z,22.30
2022-09-07T18:48:34.534Z,22.10
2022-09-07T18:54:36.448Z,22.00
2022-09-07T19:00:45.023Z,21.50
2022-09-07T19:06:47.118Z,20.90
2022-09-07T19:12:49.004Z,20.80
2022-09-07T19:18:59.725Z,20.50
2022-09-07T19:25:01.669Z,20.50
2022-09-07T19:31:07.352Z,20.50
2022-09-07T19:37:12.501Z,20.30
2022-09-07T19:43:14.614Z,20.40
2022-09-07T19:49:17.005Z,20.40
2022-09-07T19:55:18.960Z,20.30
2022-09-07T20:01:25.408Z,20.10
2022-09-07T20:07:27.542Z,20.20
2022-09-07T20:13:31.030Z,20.10
2022-09-07T20:19:33.044Z,20.00
2022-09-07T20:25:35.000Z,20.10
2022-09-07T20:31:36.992Z,20.00
2022-09-07T20:37:38.976Z,20.00
2022-09-07T20:43:41.995Z,20.00
2022-09-07T20:49:43.890Z,20.00
2022-09-07T20:55:45.779Z,19.90
2022-09-07T21:01:47.865Z,19.90
2022-09-07T21:07:49.779Z,19.90
2022-09-07T21:14:06.923Z,19.80
2022-09-07T21:20:09.560Z,19.70
2022-09-07T21:26:11.873Z,19.60
2022-09-07T21:32:13.761Z,19.40
2022-09-07T21:38:15.635Z,19.40
2022-09-07T21:44:17.684Z,19.20
2022-09-07T21:50:19.680Z,19.10
2022-09-07T21:56:21.908Z,19.00
2022-09-07T22:02:23.942Z,18.90
2022-09-07T22:08:25.949Z,18.70
2022-09-07T22:14:27.947Z,18.60
2022-09-07T22:20:29.840Z,18.40
2022-09-07T22:26:39.285Z,18.30
2022-09-07T22:32:49.550Z,18.20
2022-09-07T22:38:55.646Z,18.10
2022-09-07T22:44:58.044Z,18.00
2022-09-07T22:51:02.816Z,17.90
2022-09-07T22:57:04.867Z,17.90
2022-09-07T23:03:06.821Z,17.80
2022-09-07T23:09:16.551Z,17.70
2022-09-07T23:15:18.615Z,17.50
2022-09-07T23:21:21.079Z,17.50
2022-09-07T23:27:23.027Z,17.40
2022-09-07T23:33:26.221Z,17.30
2022-09-07T23:39:28.122Z,17.40
2022-09-07T23:45:30.131Z,17.40
2022-09-07T23:51:32.065Z,17.40
2022-09-07T23:57:33.999Z,17.50
